• Join FlightAware (Why Join?)
  • Login
  • US Flag 
03:59AM EDT


 

Airport Tracker/Info


-or-


 

Live Flight TrackerFlight Track Log ✈ FLG3746 ✈ 21-Jun-2013 ✈ KALB - KDTW

Flight Track Log - Related Links

Times and Time Zones

All times are in EDT time to prevent confusion due to time zone crossing. See the FLG3746 flight status page for this flight to view local times or setup timezone preferences in your user account.

Time Position Orientation Groundspeed Altitude Reporting Facility
EDT Latitude Longitude Course Direction KTS MPH feet Rate Location/Type
02:32PM 42.8211 -73.8442 333° Northwest 212 244 3,900  Level Boston Center
02:33PM 42.8683 -73.8989 320° Northwest 234 269 6,200 2,400 Climbing Boston Center
02:34PM 42.8268 -74.2875 281° West  Level FlightAware Approximate
02:34PM 42.9217 -73.9628 319° Northwest 258 297 8,700  Level Boston Center
02:35PM 42.8465 -74.4122 283° West  Level FlightAware Approximate
02:35PM 42.9850 -74.0464 316° Northwest 284 327 10,600  Level Boston Center
02:36PM 42.8680 -74.5361 304° West  Level FlightAware Approximate
02:36PM 43.0628 -74.1481 316° Northwest 322 371 13,100  Level Boston Center
02:37PM 43.1261 -74.2381 314° West 330 380 15,100 1,680 Climbing Boston Center
02:38PM 43.1914 -74.3311 314° West 330 380 16,500 1,200 Climbing Boston Center
02:39PM 43.2142 -74.4542 284° West 325 374 17,500 900 Climbing Boston Center
02:40PM 43.2100 -74.5739 267° West 325 374 18,300 960 Climbing Boston Center
02:41PM 43.2072 -74.7103 268° West 347 399 19,500 1,080 Climbing Boston Center
02:42PM 43.2050 -74.8186 268° West 354 407 20,500 1,200 Climbing Boston Center
02:43PM 43.2017 -74.9781 268° West 354 407 22,000 1,140 Climbing Boston Center
02:45PM 43.1843 -75.1926 264° West  Level Estimated
02:46PM 43.1875 -75.3875 264° West 354 407 25,100  Level Boston Center
02:47PM 43.1839 -75.5242 268° West 354 407 25,700 540 Climbing Boston Center
02:48PM 43.1803 -75.6633 268° West 359 413 26,200 480 Climbing Boston Center
02:49PM 43.1761 -75.8056 268° West 364 419 26,700 480 Climbing Boston Center
02:50PM 43.1717 -75.9478 268° West 370 426 27,200 480 Climbing Boston Center
02:51PM 43.1653 -76.0897 267° West 381 438 27,700 360 Climbing Boston Center
02:52PM 43.1583 -76.2375 266° West 381 438 28,000 60 Climbing Boston Center
02:53PM 43.1381 -76.4886 264° West 411 473 28,000  Level Cleveland Center
02:54PM 43.1225 -76.6433 262° West 411 473 28,000  Level Cleveland Center
02:55PM 43.1108 -76.7864 264° West 411 473 28,000  Level Cleveland Center
02:56PM 43.0950 -76.9467 262° West 417 480 28,000  Level Cleveland Center
02:57PM 43.0811 -77.1039 263° West 417 480 28,000  Level Cleveland Center
02:58PM 43.0672 -77.2667 263° West 430 495 28,000  Level Cleveland Center
02:59PM 43.0528 -77.4267 263° West 430 495 28,000  Level Cleveland Center
03:00PM 43.0383 -77.5864 263° West 430 495 28,000  Level Cleveland Center
03:01PM 43.0217 -77.7492 262° West 430 495 28,000  Level Cleveland Center
03:02PM 43.0050 -77.9286 263° West 430 495 28,000  Level Cleveland Center
03:03PM 42.9878 -78.0883 262° West 430 495 28,000  Level Cleveland Center
03:04PM 42.9703 -78.2508 262° West 430 495 28,000  Level Cleveland Center
03:05PM 42.9583 -78.3817 263° West 430 495 28,000  Level Cleveland Center
03:06PM 42.9389 -78.5725 262° West 430 495 28,000  Level Cleveland Center
03:07PM 42.9186 -78.7375 261° West 430 495 28,000  Level Cleveland Center
03:08PM 42.8961 -78.8997 259° West 430 495 28,000  Level Cleveland Center
03:09PM 42.8733 -79.0592 259° West 430 495 28,000  Level Cleveland Center
03:10PM 42.8461 -79.2239 257° West 430 495 28,000  Level Cleveland Center
03:11PM 42.8228 -79.3831 259° West 430 495 28,000  Level Cleveland Center
03:12PM 42.8017 -79.5475 260° West 436 502 28,000  Level Cleveland Center
03:13PM 42.7758 -79.7119 258° West 436 502 28,000  Level Cleveland Center
03:14PM 42.7539 -79.8764 260° West 436 502 28,000  Level Cleveland Center
03:15PM 42.7425 -80.0433 265° West 442 509 28,000  Level Cleveland Center
03:16PM 42.7367 -80.2072 267° West 447 514 28,000  Level Cleveland Center
03:17PM 42.7289 -80.3742 266° West 442 509 28,000  Level Cleveland Center
03:18PM 42.7228 -80.5436 267° West 442 509 28,000  Level Cleveland Center
03:19PM 42.7144 -80.7047 266° West 442 509 28,000  Level Cleveland Center
03:20PM 42.7058 -80.8714 266° West 442 509 28,000 -360 Level Cleveland Center
03:21PM 42.6886 -81.0381 262° West 442 509 27,300 -1,920 Descending Cleveland Center
03:22PM 42.6733 -81.1989 263° West 442 509 24,200 -1,680 Descending Cleveland Center
03:23PM 42.6556 -81.3425 260° West 426 490 24,000 -120 Descending Cleveland Center
03:24PM 42.6381 -81.4892 261° West 402 463 24,000  Level Cleveland Center
03:25PM 42.6203 -81.6186 259° West 397 457 24,000  Level Cleveland Center
03:26PM 42.6042 -81.7678 262° West 392 451 24,000 -480 Level Cleveland Center
03:27PM 42.5858 -81.9142 260° West 392 451 23,100 -1,860 Descending Cleveland Center
03:28PM 42.5694 -82.0547 261° West 392 451 20,300 -2,700 Descending Cleveland Center
03:29PM 42.5511 -82.1869 259° West 386 444 17,800 -2,640 Descending Cleveland Center
03:30PM 42.5347 -82.3161 260° West 366 421 15,100 -2,940 Descending Cleveland Center
03:31PM 42.5247 -82.4144 262° West 331 381 12,900 -1,620 Descending Cleveland Center
03:32PM 42.5017 -82.5603 258° West 324 373 12,000 -1,020 Descending Cleveland Center
03:33PM 42.4664 -82.6689 246° West 302 348 10,700 -1,440 Descending Cleveland Center
03:34PM 42.4314 -82.7578 242° Southwest 304 350 9,100 -1,740 Descending Cleveland Center
03:35PM 42.4086 -82.8469 251° West 262 302 7,400 -1,740 Descending Cleveland Center
03:36PM 42.4047 -82.9367 267° West 253 291 6,000 -780 Descending Cleveland Center
03:37PM 42.4011 -83.0211 267° West 251 289 6,000 -960 Level Cleveland Center
03:38PM 42.3942 -83.1389 265° West 258 297 4,000 -1,560 Descending Cleveland Center